METAR Data
IDs: Format: Raw Decoded Include TAF

Data at: 1319 UTC 07 Jul 2020

TISX 071253Z 04007KT 10SM SCT025 SCT035 28/24 A3001 RMK AO2 SLP162 T02830244
TISX 071153Z 08014G17KT 10SM FEW019 SCT025 BKN060 28/24 A3000 RMK AO2 SLP158 60000 7//// T02780239 10283 20272 53013
TISX 071053Z 06009KT 10SM SCT027 28/24 A2998 RMK AO2 RAE42 SLP152 P0000 T02780239
TISX 070953Z AUTO 07009KT 10SM RA FEW030 SCT047 BKN055 28/23 A2997 RMK AO2 SLP148 P0000 T02830233
TISX 070853Z AUTO 05007KT 10SM RA SCT020 SCT027 BKN034 28/23 A2996 RMK AO2 SLP145 P0000 60000 T02780233 55002
TISX 070753Z AUTO 08013KT 10SM RA FEW042 BKN060 28/23 A2996 RMK AO2 SLP143 P0000 T02780233
TISX 070653Z AUTO 06009KT 10SM RA CLR 28/23 A2997 RMK AO2 SLP145 P0000 T02780228
TISX 070553Z AUTO 06007KT 10SM RA BKN050 28/23 A2997 RMK AO2 SLP147 P0000 60000 T02830233 10289 20278 58020
TISX 070453Z AUTO 08009KT 10SM RA OVC047 28/23 A2999 RMK AO2 SLP154 P0000 T02830233
TISX 070353Z AUTO 06010KT 10SM RA FEW042 FEW050 28/24 A3002 RMK AO2 SLP164 P0000 T02780239 403330272
TISX 070253Z AUTO 05008KT 10SM RA FEW048 28/23 A3003 RMK AO2 SLP167 P0000 60000 T02830228 50011
TISX 070153Z AUTO 06011KT 10SM RA FEW022 28/23 A3003 RMK AO2 SLP168 P0000 T02830233
TISX 070053Z 07009KT 10SM RA FEW026 SCT038 29/23 A3001 RMK AO2 SLP159 P0000 T02890228
TISX 070007Z 08013KT 10SM RA FEW026 SCT038 29/23 A3000 RMK AO2 P0000 T02890233
TISX 070000Z 08016KT 10SM RA SCT022 BKN026 BKN032 29/24 A3000 RMK AO2 P0000 T02890239
TISX 062353Z 08016KT 10SM RA FEW026 SCT038 29/24 A3000 RMK AO2 RAB49 SLP156 P0000 6//// T02890239 10317 20289 53008
TISX 062253Z 08017KT 10SM FEW026 29/23 A2998 RMK AO2 SLP151 T02940228
TISX 062153Z 08016KT 10SM SCT030 29/23 A2998 RMK AO2 SLP150 T02940233
TISX 062053Z 05016G24KT 10SM SCT030 32/24 A2997 RMK AO2 RAE49 SLP148 6//// T03170244 58009
TISX 061953Z 06014G19KT 10SM RA FEW025 SCT036 32/24 A2998 RMK AO2 SLP151 T03170244 PNO
TISX 061853Z 06015KT 10SM RA FEW025 SCT036 31/24 A2999 RMK AO2 RAB49 SLP155 T03060239 PNO $
TISX 061753Z 08011KT 10SM SCT025 30/25 A3000 RMK AO2 WSHFT 1729 SLP157 VCSH 6//// T03000250 10333 20294 56012 PNO $
TISX 061749Z 08011KT 10SM SCT025 29/25 A3000 RMK AO2 WSHFT 1729 VCSH PNO $
TISX 061653Z 08013KT 9SM SCT028 30/24 A3002 RMK AO2 RAB50E52 SLP165 P0001 T03000239
TISX 061553Z 07017G26KT 10SM FEW038 SCT044 33/23 A3003 RMK AO2 PK WND 08026/1551 SLP169 T03280233
TISX 061453Z 06018G23KT 10SM SCT028 BKN050 BKN060 32/23 A3003 RMK AO2 SLP167 T03170228 53004
TISX 061353Z 06016G25KT 10SM FEW029 SCT047 SCT060 32/23 A3002 RMK AO2 SLP164 T03220233
TISX 061253Z 07016KT 10SM FEW025 31/23 A3002 RMK AO2 SLP164 T03110233
TISX 061153Z 05013KT 10SM FEW025 30/23 A3002 RMK AO2 SLP163 T03000233 10300 20272 53007
TISX 061053Z 06011KT 10SM FEW027 29/23 A3001 RMK AO2 SLP160 T02890233
TISX 060953Z AUTO 06010KT 10SM FEW060 SCT075 SCT100 28/23 A3000 RMK AO2 SLP157 T02780228
TISX 060853Z AUTO 06009KT 10SM CLR 28/23 A3000 RMK AO2 SLP156 T02780228 56002
TISX 060753Z AUTO 06007KT 10SM CLR 28/23 A3000 RMK AO2 SLP156 T02780228
TISX 060653Z AUTO 06008KT 10SM CLR 28/23 A3000 RMK AO2 SLP157 T02780228
TISX 060553Z AUTO 06009KT 10SM CLR 28/23 A3000 RMK AO2 SLP158 T02780228 10283 20278 58016
TISX 060453Z AUTO 06008KT 10SM CLR 28/22 A3002 RMK AO2 SLP165 T02780222
TISX 060353Z AUTO 06007KT 10SM CLR 28/22 A3005 RMK AO2 SLP173 T02780222 403220261
TISX 060253Z AUTO 06008KT 10SM CLR 28/22 A3005 RMK AO2 SLP174 T02830217 51013
TISX 060153Z AUTO 06008KT 10SM FEW046 28/23 A3004 RMK AO2 SLP170 T02830228